createdAt,value
2019-02-20T00:00:44.382Z,40.2
2019-02-20T00:01:44.365Z,39.92
2019-02-20T00:02:44.339Z,40.39
2019-02-20T00:03:44.320Z,40.68
2019-02-20T00:04:44.315Z,39.64
2019-02-20T00:05:44.283Z,39.26
2019-02-20T00:06:44.282Z,38.98
2019-02-20T00:07:44.251Z,38.6
2019-02-20T00:08:44.236Z,37.65
2019-02-20T00:09:44.221Z,38.41
2019-02-20T00:10:44.214Z,38.98
2019-02-20T00:11:43.939Z,38.79
2019-02-20T00:12:44.168Z,38.5
2019-02-20T00:13:44.143Z,37.93
2019-02-20T00:14:44.125Z,38.41
2019-02-20T00:15:44.111Z,39.54
2019-02-20T00:16:44.092Z,40.68
2019-02-20T00:17:44.071Z,40.77
2019-02-20T00:18:44.055Z,41.25
2019-02-20T00:19:44.089Z,40.39
2019-02-20T00:20:44.040Z,40.2
2019-02-20T00:21:44.002Z,41.22
2019-02-20T00:22:43.980Z,41.53
2019-02-20T00:23:43.969Z,42.17
2019-02-20T00:24:43.947Z,41.34
2019-02-20T00:25:43.932Z,41.13
2019-02-20T00:26:43.912Z,40.28
2019-02-20T00:27:43.895Z,39.43
2019-02-20T00:28:43.873Z,39.24
2019-02-20T00:29:43.860Z,38.86
2019-02-20T00:30:43.600Z,38.76
2019-02-20T00:31:43.833Z,39.14
2019-02-20T00:32:43.804Z,38.48
2019-02-20T00:33:43.787Z,38.48
2019-02-20T00:34:43.770Z,38.57
2019-02-20T00:35:43.513Z,38.48
2019-02-20T00:36:43.741Z,38.39
2019-02-20T00:37:43.713Z,38.29
2019-02-20T00:38:43.701Z,37.54
2019-02-20T00:39:43.685Z,36.4
2019-02-20T00:40:43.659Z,35.46
2019-02-20T00:41:43.649Z,35.64
2019-02-20T00:42:43.627Z,35.46
2019-02-20T00:43:43.612Z,36.87
2019-02-20T00:44:43.590Z,38.2
2019-02-20T00:45:43.572Z,35.46
2019-02-20T00:46:43.553Z,33.85
2019-02-20T00:47:43.572Z,34.13
2019-02-20T00:48:43.516Z,34.32
2019-02-20T00:49:43.498Z,34.42
2019-02-20T00:50:43.481Z,34.04
2019-02-20T00:51:43.466Z,34.23
2019-02-20T00:52:52.319Z,35.36
2019-02-20T00:53:43.426Z,34.99
2019-02-20T00:54:43.422Z,34.89
2019-02-20T00:55:43.391Z,34.42
2019-02-20T00:56:43.377Z,33.75
2019-02-20T00:57:43.397Z,32.53
2019-02-20T00:58:43.339Z,31.96
2019-02-20T00:59:43.081Z,31.01
2019-02-20T01:00:43.303Z,31.01
2019-02-20T01:01:43.295Z,30.63
2019-02-20T01:02:43.264Z,30.82
2019-02-20T01:03:43.247Z,30.26
2019-02-20T01:04:43.230Z,28.93
2019-02-20T01:05:43.212Z,29.22
2019-02-20T01:06:45.242Z,30.07
2019-02-20T01:07:43.175Z,30.82
2019-02-20T01:08:43.163Z,29.12
2019-02-20T01:09:43.180Z,27.7
2019-02-20T01:10:43.122Z,27.7
2019-02-20T01:11:43.146Z,28.84
2019-02-20T01:12:42.837Z,28.93
2019-02-20T01:13:43.069Z,28.84
2019-02-20T01:14:42.824Z,28.17
2019-02-20T01:15:43.036Z,28.55
2019-02-20T01:16:42.815Z,29.12
2019-02-20T01:17:42.995Z,29.22
2019-02-20T01:18:42.992Z,30.26
2019-02-20T01:19:42.969Z,30.16
2019-02-20T01:20:42.970Z,30.91
2019-02-20T01:21:42.959Z,30.82
2019-02-20T01:22:42.908Z,28.84
2019-02-20T01:23:42.889Z,28.65
2019-02-20T01:24:42.880Z,28.84
2019-02-20T01:25:42.852Z,29.41
2019-02-20T01:26:42.589Z,29.03
2019-02-20T01:27:42.817Z,29.12
2019-02-20T01:28:42.797Z,29.03
2019-02-20T01:29:42.780Z,27.7
2019-02-20T01:30:42.768Z,28.27
2019-02-20T01:31:42.754Z,29.69
2019-02-20T01:32:42.755Z,29.12
2019-02-20T01:33:42.707Z,29.88
2019-02-20T01:34:42.692Z,30.16
2019-02-20T01:35:42.675Z,30.91
2019-02-20T01:36:42.654Z,31.48
2019-02-20T01:37:42.645Z,32.43
2019-02-20T01:38:42.619Z,33.28
2019-02-20T01:39:42.598Z,33.85
2019-02-20T01:40:42.582Z,34.99
2019-02-20T01:41:42.567Z,35.27
2019-02-20T01:42:42.569Z,34.8
2019-02-20T01:43:42.545Z,32.43
2019-02-20T01:44:42.510Z,32.05
2019-02-20T01:45:42.492Z,31.39
2019-02-20T01:46:42.470Z,30.16
2019-02-20T01:47:42.459Z,29.41
2019-02-20T01:48:42.443Z,29.03
2019-02-20T01:49:42.432Z,29.31
2019-02-20T01:50:42.398Z,29.12
2019-02-20T01:51:42.379Z,29.97
2019-02-20T01:52:42.367Z,30.16
2019-02-20T01:53:42.104Z,30.16
2019-02-20T01:54:42.326Z,28.93
2019-02-20T01:55:42.309Z,28.93
2019-02-20T01:56:42.293Z,28.74
2019-02-20T01:57:42.274Z,28.84
2019-02-20T01:58:42.289Z,29.12
2019-02-20T01:59:41.990Z,29.22
2019-02-20T02:00:41.975Z,28.65
2019-02-20T02:01:42.201Z,28.55
2019-02-20T02:02:42.192Z,28.17
2019-02-20T02:03:42.168Z,26.57
2019-02-20T02:04:41.898Z,24.96
2019-02-20T02:05:42.132Z,25.24
2019-02-20T02:06:42.113Z,24.68
2019-02-20T02:07:42.091Z,24.49
2019-02-20T02:08:42.072Z,25.05
2019-02-20T02:09:42.059Z,26.66
2019-02-20T02:10:42.044Z,27.8
2019-02-20T02:11:42.026Z,28.36
2019-02-20T02:12:42.008Z,29.03
2019-02-20T02:13:41.985Z,29.69
2019-02-20T02:14:41.993Z,30.16
2019-02-20T02:15:41.949Z,31.01
2019-02-20T02:16:41.932Z,30.82
2019-02-20T02:17:41.908Z,31.77
2019-02-20T02:18:41.892Z,32.34
2019-02-20T02:19:41.876Z,31.96
2019-02-20T02:20:41.865Z,31.86
2019-02-20T02:21:41.839Z,31.86
2019-02-20T02:22:41.574Z,32.15
2019-02-20T02:23:41.808Z,32.34
2019-02-20T02:24:41.814Z,32.24
2019-02-20T02:25:41.765Z,31.48
2019-02-20T02:26:41.754Z,31.67
2019-02-20T02:27:41.730Z,30.73
2019-02-20T02:28:41.465Z,30.82
2019-02-20T02:29:41.692Z,31.58
2019-02-20T02:30:41.696Z,31.48
2019-02-20T02:31:41.662Z,31.01
2019-02-20T02:32:41.637Z,31.01
2019-02-20T02:33:41.383Z,30.73
2019-02-20T02:34:41.621Z,29.88
2019-02-20T02:35:41.592Z,29.5
2019-02-20T02:36:41.567Z,29.03
2019-02-20T02:37:41.560Z,29.12
2019-02-20T02:38:41.548Z,28.93
2019-02-20T02:39:41.523Z,29.79
2019-02-20T02:40:41.499Z,30.73
2019-02-20T02:41:41.479Z,31.2
2019-02-20T02:42:41.460Z,30.82
2019-02-20T02:43:41.557Z,31.39
2019-02-20T02:44:41.423Z,31.39
2019-02-20T02:45:41.404Z,32.24
2019-02-20T02:46:41.539Z,32.71
2019-02-20T02:47:41.423Z,33.47
2019-02-20T02:48:41.377Z,33.75
2019-02-20T02:49:41.336Z,33.28
2019-02-20T02:50:41.333Z,32.53
2019-02-20T02:51:41.297Z,32.24
2019-02-20T02:52:41.277Z,32.15
2019-02-20T02:53:41.264Z,31.96
2019-02-20T02:54:41.238Z,31.67
2019-02-20T02:55:41.271Z,30.91
2019-02-20T02:56:41.204Z,31.39
2019-02-20T02:57:41.206Z,31.29
2019-02-20T02:58:41.171Z,30.91
2019-02-20T02:59:41.159Z,30.91
2019-02-20T03:00:41.135Z,30.91
2019-02-20T03:01:41.166Z,31.58
2019-02-20T03:02:41.102Z,31.77
2019-02-20T03:03:41.076Z,31.1
2019-02-20T03:04:41.063Z,31.01
2019-02-20T03:05:41.038Z,31.48
2019-02-20T03:06:41.032Z,32.43
2019-02-20T03:07:41.005Z,33.56
2019-02-20T03:08:40.988Z,34.13
2019-02-20T03:09:40.976Z,35.27
2019-02-20T03:10:40.948Z,35.55
2019-02-20T03:11:40.934Z,36.31
2019-02-20T03:12:40.663Z,37.44
2019-02-20T03:13:40.894Z,38.1
2019-02-20T03:14:40.875Z,38.2
2019-02-20T03:15:40.876Z,37.25
2019-02-20T03:16:40.841Z,37.16
2019-02-20T03:17:40.952Z,37.73
2019-02-20T03:18:40.559Z,37.25
2019-02-20T03:19:40.809Z,37.25
2019-02-20T03:20:40.771Z,36.97
2019-02-20T03:21:40.757Z,36.02
2019-02-20T03:22:40.730Z,35.36
2019-02-20T03:23:42.964Z,35.08
2019-02-20T03:24:40.448Z,34.8
2019-02-20T03:25:40.678Z,34.61
2019-02-20T03:26:40.662Z,34.89
2019-02-20T03:27:40.651Z,34.42
2019-02-20T03:28:42.659Z,34.04
2019-02-20T03:29:40.611Z,34.13
2019-02-20T03:30:40.616Z,34.42
2019-02-20T03:31:40.593Z,34.13
2019-02-20T03:32:40.564Z,34.32
2019-02-20T03:33:40.553Z,34.32
2019-02-20T03:34:40.518Z,34.8
2019-02-20T03:35:40.505Z,34.89
2019-02-20T03:36:40.476Z,34.23
2019-02-20T03:37:40.472Z,34.89
2019-02-20T03:38:40.199Z,34.89
2019-02-20T03:39:40.431Z,35.08
2019-02-20T03:40:40.403Z,35.08
2019-02-20T03:41:40.405Z,35.27
2019-02-20T03:42:40.365Z,35.36
2019-02-20T03:43:40.349Z,36.68
2019-02-20T03:44:40.359Z,36.78
2019-02-20T03:45:40.312Z,37.54
2019-02-20T03:46:40.298Z,38.39
2019-02-20T03:47:40.284Z,38.39
2019-02-20T03:48:40.259Z,38.86
2019-02-20T03:49:40.242Z,39.24
2019-02-20T03:50:40.243Z,39.52
2019-02-20T03:51:40.208Z,40.56
2019-02-20T03:52:40.187Z,40.56
2019-02-20T03:53:50.762Z,41.13
2019-02-20T03:54:39.903Z,41.7
2019-02-20T03:55:40.154Z,42.55
2019-02-20T03:56:40.138Z,43.4
2019-02-20T03:57:39.848Z,43.68
2019-02-20T03:58:40.077Z,44.25
2019-02-20T03:59:40.067Z,44.34
2019-02-20T04:00:40.049Z,45.39
2019-02-20T04:01:40.026Z,46.42
2019-02-20T04:02:40.008Z,47.47
2019-02-20T04:03:39.988Z,48.22
2019-02-20T04:04:39.969Z,49.16
2019-02-20T04:05:39.949Z,49.83
2019-02-20T04:06:39.931Z,50.4
2019-02-20T04:07:39.916Z,50.96
2019-02-20T04:08:39.901Z,51.72
2019-02-20T04:09:39.881Z,52.19
2019-02-20T04:10:39.867Z,52.48
2019-02-20T04:11:39.843Z,52.38
2019-02-20T04:12:39.827Z,52.95
2019-02-20T04:13:39.802Z,52.86
2019-02-20T04:14:39.810Z,53.26
2019-02-20T04:15:39.771Z,53.92
2019-02-20T04:16:39.752Z,54.77
2019-02-20T04:17:39.730Z,56.95
2019-02-20T04:18:39.722Z,57.99
2019-02-20T04:19:39.703Z,59.5
2019-02-20T04:20:39.706Z,60.64
2019-02-20T04:21:39.661Z,61.4
2019-02-20T04:22:39.663Z,61.96
2019-02-20T04:23:39.642Z,61.87
2019-02-20T04:24:39.611Z,62.44
2019-02-20T04:25:39.597Z,61.96
2019-02-20T04:26:39.326Z,62.53
2019-02-20T04:27:39.303Z,63.67
2019-02-20T04:28:39.538Z,64.42
2019-02-20T04:29:39.523Z,64.33
2019-02-20T04:30:39.496Z,65.18
2019-02-20T04:31:39.482Z,65.66
2019-02-20T04:32:39.463Z,66.03
2019-02-20T04:33:39.445Z,66.31
2019-02-20T04:34:39.434Z,66.69
2019-02-20T04:35:39.411Z,67.07
2019-02-20T04:36:39.389Z,66.6
2019-02-20T04:37:39.377Z,67.26
2019-02-20T04:38:39.354Z,66.98
2019-02-20T04:39:39.341Z,66.79
2019-02-20T04:40:39.321Z,66.69
2019-02-20T04:41:39.302Z,67.07
2019-02-20T04:42:39.280Z,67.17
2019-02-20T04:43:39.263Z,67.07
2019-02-20T04:44:39.257Z,67.36
2019-02-20T04:45:39.231Z,68.4
2019-02-20T04:46:39.210Z,69.44
2019-02-20T04:47:39.201Z,69.72
2019-02-20T04:48:39.177Z,70.39
2019-02-20T04:49:39.165Z,71.23
2019-02-20T04:50:39.148Z,72.18
2019-02-20T04:51:39.139Z,73.22
2019-02-20T04:52:39.107Z,74.07
2019-02-20T04:53:39.086Z,73.88
2019-02-20T04:54:39.069Z,74.45
2019-02-20T04:55:39.051Z,74.93
2019-02-20T04:56:39.030Z,74.93
2019-02-20T04:57:39.028Z,74.26
2019-02-20T04:58:39.007Z,74.55
2019-02-20T04:59:38.977Z,74.26
2019-02-20T05:00:38.961Z,74.36
2019-02-20T05:01:38.944Z,74.36
2019-02-20T05:02:38.931Z,74.26
2019-02-20T05:03:38.908Z,74.83
2019-02-20T05:04:38.906Z,75.02
2019-02-20T05:05:38.881Z,75.4
2019-02-20T05:06:38.859Z,75.4
2019-02-20T05:07:38.838Z,75.96
2019-02-20T05:08:38.575Z,76.34
2019-02-20T05:09:39.660Z,76.63
2019-02-20T05:10:38.799Z,77.01
2019-02-20T05:11:38.770Z,77.86
2019-02-20T05:12:38.756Z,78.52
2019-02-20T05:13:38.729Z,79.18
2019-02-20T05:14:38.714Z,78.9
2019-02-20T05:15:38.693Z,79.09
2019-02-20T05:16:38.434Z,80.22
2019-02-20T05:17:38.668Z,81.26
2019-02-20T05:18:38.645Z,81.93
2019-02-20T05:19:38.624Z,82.87
2019-02-20T05:20:38.605Z,83.72
2019-02-20T05:21:38.366Z,83.63
2019-02-20T05:22:38.567Z,83.91
2019-02-20T05:23:38.558Z,84.2
2019-02-20T05:24:38.543Z,84.77
2019-02-20T05:25:38.524Z,85.33
2019-02-20T05:26:38.499Z,85.14
2019-02-20T05:27:38.487Z,85.33
2019-02-20T05:28:38.464Z,85.99
2019-02-20T05:29:38.444Z,86.56
2019-02-20T05:30:38.426Z,87.23
2019-02-20T05:31:38.415Z,87.13
2019-02-20T05:32:38.151Z,87.98
2019-02-20T05:33:38.523Z,88.55
2019-02-20T05:34:38.114Z,89.21
2019-02-20T05:35:38.347Z,89.59
2019-02-20T05:36:38.090Z,90.16
2019-02-20T05:37:39.620Z,90.44
2019-02-20T05:38:38.291Z,90.82
2019-02-20T05:39:38.295Z,90.82
2019-02-20T05:40:38.257Z,90.91
2019-02-20T05:41:38.239Z,91.29
2019-02-20T05:42:38.239Z,91.67
2019-02-20T05:43:38.202Z,92.14
2019-02-20T05:44:38.190Z,91.77
2019-02-20T05:45:38.171Z,92.99
2019-02-20T05:46:38.152Z,92.9
2019-02-20T05:47:38.133Z,93.75
2019-02-20T05:48:38.117Z,93.94
2019-02-20T05:49:38.109Z,94.13
2019-02-20T05:50:38.085Z,94.6
2019-02-20T05:51:38.062Z,94.98
2019-02-20T05:52:38.072Z,95.55
2019-02-20T05:53:38.089Z,95.74
2019-02-20T05:54:38.020Z,96.02
2019-02-20T05:55:37.997Z,96.4
2019-02-20T05:56:37.985Z,97.06
2019-02-20T05:57:38.959Z,96.88
2019-02-20T05:58:37.936Z,96.97
2019-02-20T05:59:37.920Z,96.88
2019-02-20T06:00:37.902Z,97.06
2019-02-20T06:01:37.654Z,97.25
2019-02-20T06:02:37.867Z,97.25
2019-02-20T06:03:37.861Z,97.16
2019-02-20T06:04:37.830Z,97.63
2019-02-20T06:05:37.817Z,98.15
2019-02-20T06:06:37.804Z,97.82
2019-02-20T06:07:37.785Z,98.39
2019-02-20T06:08:37.764Z,98.63
2019-02-20T06:09:37.749Z,99.24
2019-02-20T06:10:37.735Z,99.52
2019-02-20T06:11:37.721Z,99.62
2019-02-20T06:12:37.711Z,99.71
2019-02-20T06:13:37.674Z,99.99
2019-02-20T06:14:37.663Z,99.99
2019-02-20T06:15:37.640Z,99.9
2019-02-20T06:16:37.623Z,99.71
2019-02-20T06:17:37.606Z,99.8
2019-02-20T06:18:37.609Z,99.43
2019-02-20T06:19:37.575Z,99.62
2019-02-20T06:20:37.572Z,99.8
2019-02-20T06:21:37.548Z,99.33
2019-02-20T06:22:37.592Z,99.8
2019-02-20T06:23:37.506Z,99.99
2019-02-20T06:24:46.321Z,99.99
2019-02-20T06:25:37.565Z,99.99
2019-02-20T06:26:37.452Z,99.99
2019-02-20T06:27:37.440Z,99.99
2019-02-20T06:28:37.414Z,99.99
2019-02-20T06:29:37.402Z,99.99
2019-02-20T06:30:37.389Z,99.52
2019-02-20T06:31:37.377Z,99.43
2019-02-20T06:32:37.348Z,99.33
2019-02-20T06:33:37.340Z,99.52
2019-02-20T06:34:37.313Z,99.57
2019-02-20T06:35:37.296Z,99.66
2019-02-20T06:36:37.279Z,99.66
2019-02-20T06:37:37.271Z,99.1
2019-02-20T06:38:37.297Z,99.38
2019-02-20T06:39:37.227Z,99.48
2019-02-20T06:40:37.223Z,99.57
2019-02-20T06:41:41.737Z,99.99
2019-02-20T06:42:37.177Z,99.99
2019-02-20T06:43:37.153Z,99.99
2019-02-20T06:44:37.135Z,99.99
2019-02-20T06:45:37.127Z,99.99
2019-02-20T06:46:37.103Z,99.99
2019-02-20T06:47:37.084Z,99.99
2019-02-20T06:48:37.066Z,99.99
2019-02-20T06:49:37.053Z,99.99
2019-02-20T06:50:37.033Z,99.99
2019-02-20T06:51:37.025Z,99.99
2019-02-20T06:52:37.001Z,99.99
2019-02-20T06:53:36.979Z,99.99
2019-02-20T06:54:36.975Z,99.99
2019-02-20T06:55:36.948Z,99.99
2019-02-20T06:56:36.931Z,99.99
2019-02-20T06:57:36.934Z,99.99
2019-02-20T06:58:36.895Z,99.99
2019-02-20T06:59:36.879Z,99.99
2019-02-20T07:00:36.875Z,99.99
2019-02-20T07:01:36.844Z,99.99
2019-02-20T07:02:38.239Z,99.99
2019-02-20T07:03:36.806Z,99.99
2019-02-20T07:04:36.791Z,99.99
2019-02-20T07:05:36.783Z,99.99
2019-02-20T07:06:36.756Z,99.99
2019-02-20T07:07:36.741Z,99.99
2019-02-20T07:08:36.721Z,99.99
2019-02-20T07:09:36.714Z,99.99
2019-02-20T07:10:36.686Z,99.99
2019-02-20T07:11:36.672Z,99.99
2019-02-20T07:12:36.656Z,99.99
2019-02-20T07:13:36.641Z,99.99
2019-02-20T07:14:36.619Z,99.99
2019-02-20T07:15:36.603Z,99.99
2019-02-20T07:16:36.596Z,99.99
2019-02-20T07:17:36.569Z,99.99
2019-02-20T07:18:36.588Z,99.99
2019-02-20T07:19:36.533Z,99.99
2019-02-20T07:20:36.516Z,99.99
2019-02-20T07:21:36.502Z,99.99
2019-02-20T07:22:36.245Z,99.99
2019-02-20T07:23:36.465Z,99.99
2019-02-20T07:24:36.475Z,99.99
2019-02-20T07:25:36.437Z,99.99
2019-02-20T07:26:36.418Z,99.99
2019-02-20T07:27:36.398Z,99.99
2019-02-20T07:28:36.387Z,99.99
2019-02-20T07:29:36.367Z,99.99
2019-02-20T07:30:36.351Z,99.99
2019-02-20T07:31:36.346Z,99.99
2019-02-20T07:32:36.365Z,99.99
2019-02-20T07:33:36.324Z,99.99
2019-02-20T07:34:36.290Z,99.99
2019-02-20T07:35:36.267Z,99.99
2019-02-20T07:36:36.246Z,99.99
2019-02-20T07:37:36.235Z,99.99
2019-02-20T07:38:36.215Z,99.99
2019-02-20T07:39:36.202Z,99.99
2019-02-20T07:40:36.186Z,99.99
2019-02-20T07:41:35.915Z,99.99
2019-02-20T07:42:36.156Z,99.99
2019-02-20T07:43:36.137Z,99.99
2019-02-20T07:44:36.127Z,99.99
2019-02-20T07:45:35.850Z,99.99
2019-02-20T07:46:36.083Z,99.99
2019-02-20T07:47:36.063Z,99.99
2019-02-20T07:48:36.048Z,99.99
2019-02-20T07:49:35.783Z,99.99
2019-02-20T07:50:36.046Z,99.99
2019-02-20T07:51:36.002Z,99.99
2019-02-20T07:52:35.986Z,99.99
2019-02-20T07:53:35.720Z,99.99
2019-02-20T07:54:35.968Z,99.99
2019-02-20T07:55:35.688Z,99.99
2019-02-20T07:56:35.922Z,99.99
2019-02-20T07:57:35.912Z,99.99
2019-02-20T07:58:35.883Z,99.99
2019-02-20T07:59:35.873Z,99.99
2019-02-20T08:00:35.867Z,99.99
2019-02-20T08:01:35.837Z,99.99
2019-02-20T08:02:35.816Z,99.99
2019-02-20T08:03:35.801Z,99.99
2019-02-20T08:04:35.784Z,99.99
2019-02-20T08:05:35.773Z,99.99
2019-02-20T08:06:35.751Z,99.99
2019-02-20T08:07:35.747Z,99.99
2019-02-20T08:08:35.717Z,99.99
2019-02-20T08:09:35.458Z,99.99
2019-02-20T08:10:35.687Z,99.99
2019-02-20T08:11:35.681Z,99.99
2019-02-20T08:12:35.663Z,99.99
2019-02-20T08:13:41.893Z,99.99
2019-02-20T08:14:35.627Z,99.99
2019-02-20T08:15:35.604Z,99.99
2019-02-20T08:16:35.594Z,99.99
2019-02-20T08:17:35.572Z,99.99
2019-02-20T08:18:35.559Z,99.99
2019-02-20T08:19:35.539Z,99.99
2019-02-20T08:20:35.529Z,99.99
2019-02-20T08:21:35.510Z,99.99
2019-02-20T08:22:35.496Z,99.99
2019-02-20T08:23:35.473Z,99.99
2019-02-20T08:24:35.465Z,99.99
2019-02-20T08:25:35.443Z,99.99
2019-02-20T08:26:35.426Z,99.99
2019-02-20T08:27:35.412Z,99.99
2019-02-20T08:28:35.400Z,99.99
2019-02-20T08:29:35.380Z,99.99
2019-02-20T08:30:35.363Z,99.99
2019-02-20T08:31:35.348Z,99.99
2019-02-20T08:32:35.328Z,99.99
2019-02-20T08:33:35.323Z,99.99
2019-02-20T08:34:35.319Z,99.99
2019-02-20T08:35:35.297Z,99.99
2019-02-20T08:36:35.290Z,99.99
2019-02-20T08:37:35.253Z,99.99
2019-02-20T08:38:35.234Z,99.99
2019-02-20T08:39:35.221Z,99.99
2019-02-20T08:40:35.242Z,99.99
2019-02-20T08:41:35.191Z,99.99
2019-02-20T08:42:35.198Z,99.99
2019-02-20T08:43:35.161Z,99.99
2019-02-20T08:44:35.152Z,99.99
2019-02-20T08:45:35.124Z,99.99
2019-02-20T08:46:35.163Z,99.99
2019-02-20T08:47:35.094Z,99.99
2019-02-20T08:48:35.093Z,99.99
2019-02-20T08:49:35.118Z,99.99
2019-02-20T08:50:35.046Z,99.99
2019-02-20T08:51:35.032Z,99.99
2019-02-20T08:52:35.018Z,99.99
2019-02-20T08:53:35.012Z,99.99
2019-02-20T08:54:34.989Z,99.99
2019-02-20T08:55:34.971Z,99.99
2019-02-20T08:56:34.990Z,99.99
2019-02-20T08:57:34.947Z,99.99
2019-02-20T08:58:34.929Z,99.99
2019-02-20T08:59:34.663Z,99.99
2019-02-20T09:00:34.647Z,99.99
2019-02-20T09:01:34.877Z,99.99
2019-02-20T09:02:34.883Z,99.99
2019-02-20T09:03:34.850Z,99.99
2019-02-20T09:04:34.838Z,99.99
2019-02-20T09:05:36.639Z,99.99
2019-02-20T09:06:34.802Z,99.99
2019-02-20T09:07:34.786Z,99.99
2019-02-20T09:08:34.777Z,99.99
2019-02-20T09:09:34.763Z,99.99
2019-02-20T09:10:34.744Z,99.99
2019-02-20T09:11:34.731Z,99.99
2019-02-20T09:12:34.712Z,99.99
2019-02-20T09:13:34.697Z,99.99
2019-02-20T09:14:34.684Z,99.99
2019-02-20T09:15:34.671Z,99.99
2019-02-20T09:16:34.667Z,99.99
2019-02-20T09:17:36.042Z,99.99
2019-02-20T09:18:34.623Z,99.99
2019-02-20T09:19:34.609Z,99.99
2019-02-20T09:20:34.594Z,99.99
2019-02-20T09:21:34.586Z,99.99
2019-02-20T09:22:34.573Z,99.99
2019-02-20T09:23:34.548Z,99.99
2019-02-20T09:24:34.537Z,99.99
2019-02-20T09:25:43.678Z,99.99
2019-02-20T09:26:34.515Z,99.99
2019-02-20T09:27:34.501Z,99.99
2019-02-20T09:28:34.479Z,99.99
2019-02-20T09:29:34.462Z,99.99
2019-02-20T09:30:34.214Z,99.99
2019-02-20T09:31:34.456Z,99.99
2019-02-20T09:32:34.419Z,99.99
2019-02-20T09:33:34.404Z,99.99
2019-02-20T09:34:34.147Z,99.99
2019-02-20T09:35:34.374Z,99.99
2019-02-20T09:36:34.380Z,99.99
2019-02-20T09:37:34.348Z,99.99
2019-02-20T09:38:34.328Z,99.99
2019-02-20T09:39:34.317Z,99.99
2019-02-20T09:40:34.310Z,99.99
2019-02-20T09:41:34.291Z,99.99
2019-02-20T09:42:34.283Z,99.99
2019-02-20T09:43:34.269Z,99.99
2019-02-20T09:44:34.245Z,99.99
2019-02-20T09:45:44.619Z,99.99
2019-02-20T09:46:34.226Z,99.99
2019-02-20T09:47:34.222Z,99.99
2019-02-20T09:48:34.190Z,99.99
2019-02-20T09:49:34.172Z,99.99
2019-02-20T09:50:34.156Z,99.99
2019-02-20T09:51:34.143Z,99.99
2019-02-20T09:52:34.126Z,99.99
2019-02-20T09:53:34.116Z,99.99
2019-02-20T09:54:34.106Z,99.99
2019-02-20T09:55:34.084Z,99.99
2019-02-20T09:56:33.848Z,99.99
2019-02-20T09:57:34.057Z,99.99
2019-02-20T09:58:34.042Z,99.99
2019-02-20T09:59:34.029Z,99.99
2019-02-20T10:00:34.015Z,99.99
2019-02-20T10:01:34.617Z,99.99
2019-02-20T10:02:33.987Z,99.99
2019-02-20T10:03:33.973Z,99.99
2019-02-20T10:04:33.967Z,99.99
2019-02-20T10:05:33.958Z,99.99
2019-02-20T10:06:33.931Z,99.99
2019-02-20T10:07:33.665Z,99.99
2019-02-20T10:08:33.900Z,99.99
2019-02-20T10:09:33.888Z,99.99
2019-02-20T10:10:33.874Z,99.99
2019-02-20T10:11:33.856Z,99.99
2019-02-20T10:12:33.841Z,99.99
2019-02-20T10:13:33.924Z,99.99
2019-02-20T10:14:33.817Z,99.99
2019-02-20T10:15:33.810Z,99.99
2019-02-20T10:16:33.789Z,99.99
2019-02-20T10:17:33.531Z,99.99
2019-02-20T10:18:33.802Z,99.99
2019-02-20T10:19:33.747Z,99.99
2019-02-20T10:20:33.734Z,99.99
2019-02-20T10:21:33.721Z,99.99
2019-02-20T10:22:33.709Z,99.99
2019-02-20T10:23:33.694Z,99.99
2019-02-20T10:24:33.679Z,99.99
2019-02-20T10:25:33.665Z,99.99
2019-02-20T10:26:33.650Z,99.99
2019-02-20T10:27:33.642Z,99.99
2019-02-20T10:28:33.623Z,99.99
2019-02-20T10:29:33.609Z,99.99
2019-02-20T10:30:33.597Z,99.99
2019-02-20T10:31:33.582Z,99.99
2019-02-20T10:32:33.570Z,99.99
2019-02-20T10:33:33.561Z,99.99
2019-02-20T10:34:33.545Z,99.99
2019-02-20T10:35:33.528Z,98.12
2019-02-20T10:36:33.516Z,98.69
2019-02-20T10:37:33.504Z,99.44
2019-02-20T10:38:33.487Z,99.07
2019-02-20T10:39:33.474Z,99.99
2019-02-20T10:40:33.463Z,99.16
2019-02-20T10:41:33.497Z,99.26
2019-02-20T10:42:33.438Z,99.99
2019-02-20T10:43:33.427Z,97.17
2019-02-20T10:44:33.405Z,96.88
2019-02-20T10:45:33.396Z,99.35
2019-02-20T10:46:33.134Z,99.92
2019-02-20T10:47:33.367Z,98.69
2019-02-20T10:48:33.368Z,98.21
2019-02-20T10:49:33.345Z,96.6
2019-02-20T10:50:33.331Z,94.42
2019-02-20T10:51:33.325Z,92.42
2019-02-20T10:52:33.304Z,91.66
2019-02-20T10:53:33.288Z,93.18
2019-02-20T10:54:33.316Z,93.7
2019-02-20T10:55:33.263Z,94.37
2019-02-20T10:56:33.010Z,97.31
2019-02-20T10:57:33.235Z,94.18
2019-02-20T10:58:33.224Z,96.08
2019-02-20T10:59:32.967Z,93.51
2019-02-20T11:00:33.203Z,93.04
2019-02-20T11:01:33.188Z,91.89
2019-02-20T11:02:33.178Z,93.32
2019-02-20T11:03:32.905Z,95.22
2019-02-20T11:04:33.366Z,93.32
2019-02-20T11:05:33.437Z,91.89
2019-02-20T11:06:32.869Z,90.95
2019-02-20T11:07:33.106Z,91.61
2019-02-20T11:08:33.092Z,91.14
2019-02-20T11:09:34.358Z,90.76
2019-02-20T11:10:33.064Z,93.41
2019-02-20T11:11:33.048Z,94.13
2019-02-20T11:12:33.040Z,92.13
2019-02-20T11:13:33.025Z,92.9
2019-02-20T11:14:33.012Z,94.6
2019-02-20T11:15:33.007Z,96.22
2019-02-20T11:16:33.162Z,95.17
2019-02-20T11:17:32.973Z,94.89
2019-02-20T11:18:32.958Z,92.27
2019-02-20T11:19:32.943Z,87.34
2019-02-20T11:20:32.930Z,86.47
2019-02-20T11:21:32.917Z,86.95
2019-02-20T11:22:34.514Z,84.58
2019-02-20T11:23:32.893Z,80.87
2019-02-20T11:24:32.878Z,78.88
2019-02-20T11:25:33.738Z,77.07
2019-02-20T11:26:32.861Z,79.54
2019-02-20T11:27:32.850Z,80.4
2019-02-20T11:28:32.832Z,78.25
2019-02-20T11:29:32.825Z,78.53
2019-02-20T11:30:32.557Z,78.63
2019-02-20T11:31:32.790Z,78.53
2019-02-20T11:32:32.778Z,78.91
2019-02-20T11:33:32.767Z,77.2
2019-02-20T11:34:32.506Z,76.25
2019-02-20T11:35:32.494Z,75.87
2019-02-20T11:36:32.730Z,75.78
2019-02-20T11:37:32.723Z,76.92
2019-02-20T11:38:33.376Z,77.87
2019-02-20T11:39:40.037Z,82.15
2019-02-20T11:40:32.686Z,81.77
2019-02-20T11:41:32.674Z,80.15
2019-02-20T11:42:32.656Z,78.82
2019-02-20T11:43:32.643Z,79.39
2019-02-20T11:44:32.633Z,78.91
2019-02-20T11:45:32.375Z,79.35
2019-02-20T11:46:32.359Z,82.1
2019-02-20T11:47:33.644Z,83.82
2019-02-20T11:48:32.583Z,82.01
2019-02-20T11:49:32.576Z,80.87
2019-02-20T11:50:32.560Z,82.96
2019-02-20T11:51:32.550Z,84.24
2019-02-20T11:52:40.698Z,80.24
2019-02-20T11:53:39.515Z,78.06
2019-02-20T11:54:32.512Z,77.97
2019-02-20T11:55:32.500Z,79.58
2019-02-20T11:56:32.487Z,78.91
2019-02-20T11:57:32.477Z,77.49
2019-02-20T11:58:32.464Z,78.25
2019-02-20T11:59:32.457Z,77.11
2019-02-20T12:00:32.442Z,77.2
2019-02-20T12:01:32.426Z,77.55
2019-02-20T12:02:39.904Z,79.16
2019-02-20T12:03:32.405Z,80.11
2019-02-20T12:04:32.390Z,82.2
2019-02-20T12:05:32.387Z,82.68
2019-02-20T12:06:32.366Z,83.72
2019-02-20T12:07:32.356Z,84.29
2019-02-20T12:08:32.342Z,82.49
2019-02-20T12:09:32.096Z,80.68
2019-02-20T12:10:32.073Z,79.35
2019-02-20T12:11:32.305Z,79.83
2019-02-20T12:12:32.296Z,81.06
2019-02-20T12:13:32.282Z,81.06
2019-02-20T12:14:32.275Z,80.77
2019-02-20T12:15:32.280Z,83.15
2019-02-20T12:16:32.251Z,83.62
2019-02-20T12:17:32.234Z,87.14
2019-02-20T12:18:32.218Z,82.01
2019-02-20T12:19:31.986Z,80.49
2019-02-20T12:20:32.194Z,80.68
2019-02-20T12:21:31.933Z,79.54
2019-02-20T12:22:32.168Z,79.63
2019-02-20T12:23:39.149Z,81.54
2019-02-20T12:24:32.886Z,83.34
2019-02-20T12:25:32.132Z,81.63
2019-02-20T12:26:37.627Z,83.59
2019-02-20T12:27:33.115Z,83.78
2019-02-20T12:28:32.104Z,83.87
2019-02-20T12:29:32.566Z,88.05
2019-02-20T12:30:32.069Z,87.57
2019-02-20T12:31:32.063Z,86.72
2019-02-20T12:32:33.384Z,84.63
2019-02-20T12:33:31.782Z,82.82
2019-02-20T12:34:32.017Z,83.97
2019-02-20T12:35:32.005Z,83.68
2019-02-20T12:36:31.995Z,86.53
2019-02-20T12:37:31.983Z,85.77
2019-02-20T12:38:31.977Z,84.25
2019-02-20T12:39:31.956Z,83.78
2019-02-20T12:40:32.720Z,83.68
2019-02-20T12:41:32.733Z,83.3
2019-02-20T12:42:31.923Z,84.16
2019-02-20T12:43:31.905Z,84.44
2019-02-20T12:44:31.892Z,85.11
2019-02-20T12:45:31.880Z,84.63
2019-02-20T12:46:31.870Z,84.25
2019-02-20T12:47:31.854Z,83.97
2019-02-20T12:48:31.843Z,82.73
2019-02-20T12:49:31.583Z,83.01
2019-02-20T12:50:31.839Z,82.26
2019-02-20T12:51:31.800Z,82.92
2019-02-20T12:52:31.789Z,83.87
2019-02-20T12:53:31.777Z,82.64
2019-02-20T12:54:31.972Z,82.07